LEPP/PNA METAR and TAF weather

Enter ICAO airport designator
Station Type Date Time Source
LEPP METAR 2019/11/18 09:00 UTC NOAA

LEPP 180900Z 32008KT 9999 FEW018 BKN034 05/02 Q1014


Station Type Date Time Source
LEPP Decoded METAR 2019/11/18 09:00 UTC NOAA

Pamplona / Noain, Spain (LEPP) 42-46N 001-38W 453M
Nov 18, 2019 - 04:00 AM EST / 2019.11.18 0900 UTC
Wind: from the NW (320 degrees) at 9 MPH (8 KT):0
Visibility: greater than 7 mile(s):0
Sky conditions: mostly cloudy
Temperature: 41 F (5 C)
Dew Point: 35 F (2 C)
Relative Humidity: 80%
Pressure (altimeter): 29.94 in. Hg (1014 hPa)
ob: LEPP 180900Z 32008KT 9999 FEW018 BKN034 05/02 Q1014
cycle: 9

Station Type Date Time Source
LEPP TAF 2019/11/18 09:29 UTC NOAA

TAF LEPP 180800Z 1809/1909 33009KT 9999 SCT020 BKN030 TX08/1814Z TNM00/1903Z PROB30
TEMPO 1809/1810 3000 BR BCFG BKN005 PROB30
TEMPO 1810/1816 36015G25KT
TEMPO 1821/1909 3000 BR BCFG

Example: see airport list